createdAt,value
2022-12-13T00:00:40.693Z,0.00
2022-12-13T00:02:01.498Z,0.00
2022-12-13T00:03:22.091Z,0.00
2022-12-13T00:04:42.722Z,0.10
2022-12-13T00:06:06.326Z,0.00
2022-12-13T00:07:26.731Z,0.00
2022-12-13T00:08:47.302Z,0.00
2022-12-13T00:10:08.935Z,-0.10
2022-12-13T00:11:29.481Z,0.00
2022-12-13T00:12:50.307Z,0.10
2022-12-13T00:14:11.762Z,0.10
2022-12-13T00:15:32.266Z,0.00
2022-12-13T00:16:52.877Z,0.00
2022-12-13T00:18:13.331Z,0.10
2022-12-13T00:19:33.807Z,0.10
2022-12-13T00:20:54.815Z,0.10
2022-12-13T00:22:16.722Z,0.10
2022-12-13T00:23:37.355Z,0.00
2022-12-13T00:24:58.101Z,-0.10
2022-12-13T00:26:20.006Z,-0.10
2022-12-13T00:27:40.346Z,-0.10
2022-12-13T00:29:02.223Z,-0.30
2022-12-13T00:30:22.864Z,-0.20
2022-12-13T00:32:00.874Z,-0.10
2022-12-13T00:33:22.042Z,-0.20
2022-12-13T00:34:42.764Z,-0.10
2022-12-13T00:36:03.959Z,-0.20
2022-12-13T00:37:26.155Z,-0.20
2022-12-13T00:38:46.861Z,-0.10
2022-12-13T00:40:08.559Z,0.00
2022-12-13T00:41:30.847Z,0.00
2022-12-13T00:42:51.723Z,0.00
2022-12-13T00:44:13.034Z,0.10
2022-12-13T00:45:33.516Z,0.10
2022-12-13T00:46:53.952Z,0.00
2022-12-13T00:48:14.865Z,-0.10
2022-12-13T00:49:35.227Z,-0.20
2022-12-13T00:50:56.093Z,-0.10
2022-12-13T00:52:16.701Z,0.00
2022-12-13T00:53:38.966Z,0.00
2022-12-13T00:54:59.348Z,0.10
2022-12-13T00:56:22.035Z,0.10
2022-12-13T00:57:42.485Z,0.10
2022-12-13T00:59:03.984Z,0.10
2022-12-13T01:00:24.760Z,0.10
2022-12-13T01:01:45.725Z,0.10
2022-12-13T01:03:06.509Z,0.10
2022-12-13T01:04:27.283Z,0.00
2022-12-13T01:06:14.339Z,0.10
2022-12-13T01:07:28.715Z,0.10
2022-12-13T01:08:50.779Z,0.10
2022-12-13T01:10:12.362Z,0.10
2022-12-13T01:11:32.660Z,0.10
2022-12-13T01:12:53.261Z,0.10
2022-12-13T01:14:13.983Z,0.00
2022-12-13T01:15:34.697Z,-0.10
2022-12-13T01:16:55.680Z,-0.10
2022-12-13T01:18:16.380Z,-0.10
2022-12-13T01:19:36.728Z,0.00
2022-12-13T01:20:58.276Z,0.10
2022-12-13T01:22:19.070Z,0.10
2022-12-13T01:23:40.199Z,0.20
2022-12-13T01:25:02.296Z,0.10
2022-12-13T01:26:22.975Z,0.10
2022-12-13T01:27:43.564Z,0.10
2022-12-13T01:29:04.164Z,0.10
2022-12-13T01:30:24.926Z,0.10
2022-12-13T01:31:45.584Z,0.10
2022-12-13T01:33:13.971Z,0.00
2022-12-13T01:34:35.055Z,0.00
2022-12-13T01:35:56.700Z,-0.10
2022-12-13T01:37:17.178Z,-0.10
2022-12-13T01:38:38.376Z,-0.10
2022-12-13T01:39:58.846Z,-0.20
2022-12-13T01:41:28.563Z,-0.20
2022-12-13T01:42:49.368Z,-0.20
2022-12-13T01:44:43.587Z,-0.20
2022-12-13T01:46:04.753Z,-0.20
2022-12-13T01:47:29.051Z,-0.30
2022-12-13T01:48:53.578Z,-0.20
2022-12-13T01:50:15.766Z,-0.20
2022-12-13T01:51:39.526Z,-0.20
2022-12-13T01:53:00.609Z,-0.20
2022-12-13T01:54:24.434Z,-0.20
2022-12-13T01:55:57.007Z,-0.20
2022-12-13T01:57:20.828Z,-0.10
2022-12-13T01:58:42.676Z,-0.10
2022-12-13T02:00:05.505Z,0.00
2022-12-13T02:01:26.175Z,-0.10
2022-12-13T02:02:47.203Z,-0.10
2022-12-13T02:04:08.256Z,-0.10
2022-12-13T02:05:31.820Z,-0.10
2022-12-13T02:06:53.048Z,-0.10
2022-12-13T02:08:16.195Z,-0.20
2022-12-13T02:09:36.423Z,-0.40
2022-12-13T02:10:57.765Z,-0.30
2022-12-13T02:12:19.749Z,-0.30
2022-12-13T02:13:40.914Z,-0.30
2022-12-13T02:15:03.981Z,-0.30
2022-12-13T02:16:35.007Z,-0.40
2022-12-13T02:18:06.830Z,-0.40
2022-12-13T02:20:13.837Z,-0.40
2022-12-13T02:21:49.511Z,-0.50
2022-12-13T02:23:27.778Z,-0.50
2022-12-13T02:25:03.583Z,-0.50
2022-12-13T02:26:44.655Z,-0.50
2022-12-13T02:28:30.171Z,-0.50
2022-12-13T02:30:19.730Z,-0.50
2022-12-13T02:31:45.353Z,-0.50
2022-12-13T02:33:29.944Z,-0.50
2022-12-13T02:34:55.637Z,-0.60
2022-12-13T02:36:22.339Z,-0.60
2022-12-13T02:37:48.317Z,-0.60
2022-12-13T02:39:11.758Z,-0.60
2022-12-13T02:40:34.709Z,-0.60
2022-12-13T02:41:59.339Z,-0.60
2022-12-13T02:43:23.616Z,-0.60
2022-12-13T02:44:47.253Z,-0.60
2022-12-13T02:46:11.564Z,-0.60
2022-12-13T02:47:33.533Z,-0.60
2022-12-13T02:48:55.326Z,-0.60
2022-12-13T02:50:16.322Z,-0.60
2022-12-13T02:51:36.880Z,-0.60
2022-12-13T02:52:58.044Z,-0.60
2022-12-13T02:54:18.415Z,-0.60
2022-12-13T02:55:40.841Z,-0.50
2022-12-13T02:57:01.387Z,-0.50
2022-12-13T02:58:24.088Z,-0.60
2022-12-13T02:59:44.614Z,-0.60
2022-12-13T03:01:28.489Z,-0.60
2022-12-13T03:03:02.029Z,-0.80
2022-12-13T03:04:31.077Z,-0.90
2022-12-13T03:05:57.152Z,-0.90
2022-12-13T03:07:22.303Z,-1.10
2022-12-13T03:08:55.628Z,-1.10
2022-12-13T03:10:20.608Z,-1.10
2022-12-13T03:11:53.134Z,-1.00
2022-12-13T03:13:17.181Z,-0.90
2022-12-13T03:14:41.645Z,-1.00
2022-12-13T03:16:09.537Z,-0.90
2022-12-13T03:17:41.271Z,-0.90
2022-12-13T03:19:03.671Z,-1.00
2022-12-13T03:20:26.995Z,-0.90
2022-12-13T03:21:49.544Z,-0.80
2022-12-13T03:23:11.352Z,-0.90
2022-12-13T03:24:32.172Z,-0.80
2022-12-13T03:25:55.632Z,-0.80
2022-12-13T03:27:16.199Z,-0.80
2022-12-13T03:28:37.255Z,-0.80
2022-12-13T03:29:58.415Z,-0.80
2022-12-13T03:31:19.055Z,-0.70
2022-12-13T03:32:40.949Z,-0.60
2022-12-13T03:34:01.571Z,-0.60
2022-12-13T03:35:22.878Z,-0.60
2022-12-13T03:36:43.433Z,-0.60
2022-12-13T03:38:04.189Z,-0.60
2022-12-13T03:39:24.669Z,-0.60
2022-12-13T03:40:45.202Z,-0.60
2022-12-13T03:42:05.781Z,-0.60
2022-12-13T03:43:26.637Z,-0.60
2022-12-13T03:44:46.984Z,-0.60
2022-12-13T03:46:08.280Z,-0.60
2022-12-13T03:47:28.713Z,-0.60
2022-12-13T03:48:50.600Z,-0.70
2022-12-13T03:50:26.216Z,-0.90
2022-12-13T03:51:47.979Z,-0.80
2022-12-13T03:53:08.261Z,-0.80
2022-12-13T03:54:45.100Z,-0.80
2022-12-13T03:56:06.694Z,-0.80
2022-12-13T03:57:26.954Z,-0.70
2022-12-13T03:58:47.524Z,-0.70
2022-12-13T04:00:09.646Z,-0.70
2022-12-13T04:01:30.659Z,-0.70
2022-12-13T04:02:51.344Z,-0.80
2022-12-13T04:04:13.076Z,-0.80
2022-12-13T04:05:33.884Z,-0.80
2022-12-13T04:06:54.310Z,-0.80
2022-12-13T04:08:21.764Z,-0.80
2022-12-13T04:09:42.927Z,-0.80
2022-12-13T04:11:03.702Z,-0.90
2022-12-13T04:12:24.580Z,-0.80
2022-12-13T04:13:45.423Z,-0.90
2022-12-13T04:15:07.838Z,-0.90
2022-12-13T04:16:28.465Z,-0.90
2022-12-13T04:17:51.113Z,-1.00
2022-12-13T04:19:13.268Z,-1.00
2022-12-13T04:20:34.235Z,-0.90
2022-12-13T04:21:55.035Z,-0.90
2022-12-13T04:23:15.272Z,-0.80
2022-12-13T04:24:35.970Z,-0.80
2022-12-13T04:25:56.838Z,-0.80
2022-12-13T04:27:17.340Z,-0.80
2022-12-13T04:28:38.150Z,-0.80
2022-12-13T04:29:58.897Z,-0.80
2022-12-13T04:31:19.557Z,-0.90
2022-12-13T04:32:40.131Z,-1.00
2022-12-13T04:34:00.781Z,-1.10
2022-12-13T04:35:22.666Z,-1.10
2022-12-13T04:36:43.367Z,-1.20
2022-12-13T04:38:04.141Z,-1.20
2022-12-13T04:39:24.617Z,-1.10
2022-12-13T04:40:45.173Z,-1.00
2022-12-13T04:42:05.893Z,-1.00
2022-12-13T04:43:26.580Z,-1.10
2022-12-13T04:44:47.423Z,-1.00
2022-12-13T04:46:08.084Z,-1.20
2022-12-13T04:47:28.574Z,-1.20
2022-12-13T04:48:49.153Z,-1.10
2022-12-13T04:50:10.435Z,-1.20
2022-12-13T04:51:32.455Z,-1.30
2022-12-13T04:52:53.164Z,-1.20
2022-12-13T04:54:24.091Z,-1.20
2022-12-13T04:55:45.150Z,-1.10
2022-12-13T04:57:06.611Z,-1.00
2022-12-13T04:58:27.981Z,-0.90
2022-12-13T04:59:48.632Z,-1.00
2022-12-13T05:01:10.036Z,-1.00
2022-12-13T05:02:30.840Z,-0.90
2022-12-13T05:03:51.538Z,-0.90
2022-12-13T05:05:12.855Z,-0.90
2022-12-13T05:06:35.147Z,-0.90
2022-12-13T05:07:56.128Z,-0.90
2022-12-13T05:09:16.677Z,-1.10
2022-12-13T05:10:38.374Z,-1.00
2022-12-13T05:12:01.702Z,-1.20
2022-12-13T05:13:22.650Z,-1.20
2022-12-13T05:14:43.129Z,-1.20
2022-12-13T05:16:06.226Z,-1.10
2022-12-13T05:17:26.382Z,-1.10
2022-12-13T05:18:47.046Z,-1.00
2022-12-13T05:20:08.473Z,-0.90
2022-12-13T05:21:28.982Z,-0.90
2022-12-13T05:22:50.812Z,-0.90
2022-12-13T05:24:11.351Z,-0.90
2022-12-13T05:25:33.065Z,-1.00
2022-12-13T05:26:53.614Z,-1.00
2022-12-13T05:28:27.665Z,-0.90
2022-12-13T05:29:49.153Z,-0.90
2022-12-13T05:31:23.416Z,-0.90
2022-12-13T05:32:48.120Z,-0.90
2022-12-13T05:34:08.913Z,-0.90
2022-12-13T05:35:29.636Z,-0.80
2022-12-13T05:36:50.347Z,-0.80
2022-12-13T05:38:12.506Z,-0.90
2022-12-13T05:39:32.786Z,-0.90
2022-12-13T05:40:53.268Z,-0.90
2022-12-13T05:42:13.998Z,-0.90
2022-12-13T05:43:42.801Z,-0.90
2022-12-13T05:45:06.223Z,-0.90
2022-12-13T05:46:26.607Z,-0.90
2022-12-13T05:47:47.851Z,-1.00
2022-12-13T05:49:08.497Z,-1.00
2022-12-13T05:50:29.175Z,-1.10
2022-12-13T05:51:49.657Z,-1.00
2022-12-13T05:53:12.760Z,-1.00
2022-12-13T05:54:33.795Z,-0.90
2022-12-13T05:55:54.621Z,-0.90
2022-12-13T05:57:15.619Z,-0.90
2022-12-13T05:58:37.275Z,-1.00
2022-12-13T05:59:58.346Z,-1.00
2022-12-13T06:01:18.687Z,-1.00
2022-12-13T06:02:39.365Z,-1.00
2022-12-13T06:03:59.848Z,-0.90
2022-12-13T06:05:20.344Z,-0.90
2022-12-13T06:06:40.928Z,-0.90
2022-12-13T06:08:01.644Z,-1.00
2022-12-13T06:09:23.560Z,-1.00
2022-12-13T06:10:43.780Z,-1.00
2022-12-13T06:12:04.786Z,-1.10
2022-12-13T06:13:45.137Z,-1.10
2022-12-13T06:15:22.471Z,-1.10
2022-12-13T06:16:43.401Z,-1.00
2022-12-13T06:18:03.860Z,-1.00
2022-12-13T06:19:24.949Z,-1.10
2022-12-13T06:20:45.879Z,-1.20
2022-12-13T06:22:06.551Z,-1.10
2022-12-13T06:23:27.895Z,-1.10
2022-12-13T06:24:49.518Z,-1.00
2022-12-13T06:26:10.072Z,-1.00
2022-12-13T06:27:30.715Z,-1.00
2022-12-13T06:28:51.349Z,-1.00
2022-12-13T06:30:12.996Z,-1.10
2022-12-13T06:31:33.314Z,-1.10
2022-12-13T06:32:54.015Z,-1.10
2022-12-13T06:34:15.497Z,-1.20
2022-12-13T06:35:41.182Z,-1.20
2022-12-13T06:37:02.863Z,-1.30
2022-12-13T06:38:32.121Z,-1.30
2022-12-13T06:39:54.558Z,-1.30
2022-12-13T06:41:16.240Z,-1.30
2022-12-13T06:42:36.790Z,-1.30
2022-12-13T06:43:57.594Z,-1.20
2022-12-13T06:45:18.375Z,-1.30
2022-12-13T06:46:40.794Z,-1.30
2022-12-13T06:48:01.330Z,-1.30
2022-12-13T06:49:22.361Z,-1.40
2022-12-13T06:50:43.068Z,-1.40
2022-12-13T06:52:03.798Z,-1.50
2022-12-13T06:53:24.505Z,-1.50
2022-12-13T06:54:44.731Z,-1.60
2022-12-13T06:56:09.044Z,-1.50
2022-12-13T06:57:31.690Z,-1.40
2022-12-13T06:58:52.663Z,-1.40
2022-12-13T07:00:22.828Z,-1.50
2022-12-13T07:01:45.039Z,-1.50
2022-12-13T07:03:12.339Z,-1.40
2022-12-13T07:04:33.945Z,-1.50
2022-12-13T07:05:58.310Z,-1.40
2022-12-13T07:07:19.125Z,-1.50
2022-12-13T07:08:40.014Z,-1.50
2022-12-13T07:10:00.515Z,-1.40
2022-12-13T07:11:23.314Z,-1.40
2022-12-13T07:12:44.201Z,-1.40
2022-12-13T07:14:04.885Z,-1.30
2022-12-13T07:15:25.525Z,-1.30
2022-12-13T07:16:46.153Z,-1.30
2022-12-13T07:18:06.791Z,-1.40
2022-12-13T07:19:27.465Z,-1.40
2022-12-13T07:20:56.204Z,-1.30
2022-12-13T07:22:16.796Z,-1.30
2022-12-13T07:23:38.414Z,-1.20
2022-12-13T07:24:59.386Z,-1.20
2022-12-13T07:26:21.564Z,-1.20
2022-12-13T07:27:42.223Z,-1.20
2022-12-13T07:29:03.737Z,-1.20
2022-12-13T07:30:25.532Z,-1.20
2022-12-13T07:31:46.046Z,-1.10
2022-12-13T07:33:06.772Z,-1.20
2022-12-13T07:34:27.178Z,-1.20
2022-12-13T07:35:48.034Z,-1.20
2022-12-13T07:37:30.134Z,-1.10
2022-12-13T07:38:52.617Z,-1.10
2022-12-13T07:40:13.184Z,-1.00
2022-12-13T07:41:35.142Z,-1.00
2022-12-13T07:42:56.464Z,-1.00
2022-12-13T07:44:16.922Z,-1.10
2022-12-13T07:45:37.516Z,-1.10
2022-12-13T07:46:58.147Z,-1.10
2022-12-13T07:48:19.136Z,-1.00
2022-12-13T07:49:39.558Z,-1.00
2022-12-13T07:51:02.181Z,-1.00
2022-12-13T07:52:22.782Z,-1.00
2022-12-13T07:53:43.254Z,-1.10
2022-12-13T07:55:04.618Z,-1.00
2022-12-13T07:56:25.468Z,-1.10
2022-12-13T07:57:47.447Z,-1.10
2022-12-13T07:59:09.307Z,-1.10
2022-12-13T08:00:29.676Z,-1.10
2022-12-13T08:01:50.584Z,-1.10
2022-12-13T08:03:24.329Z,-1.10
2022-12-13T08:04:46.382Z,-1.10
2022-12-13T08:06:15.600Z,-1.10
2022-12-13T08:07:36.353Z,-1.10
2022-12-13T08:08:57.314Z,-1.00
2022-12-13T08:10:17.676Z,-1.10
2022-12-13T08:11:38.460Z,-1.00
2022-12-13T08:13:01.961Z,-1.10
2022-12-13T08:14:22.796Z,-1.10
2022-12-13T08:15:43.503Z,-1.20
2022-12-13T08:17:04.255Z,-1.10
2022-12-13T08:18:24.944Z,-1.10
2022-12-13T08:19:45.632Z,-1.10
2022-12-13T08:21:18.538Z,-1.20
2022-12-13T08:22:54.634Z,-1.20
2022-12-13T08:24:22.979Z,-1.30
2022-12-13T08:25:43.523Z,-1.40
2022-12-13T08:27:04.348Z,-1.40
2022-12-13T08:28:27.214Z,-1.20
2022-12-13T08:29:47.925Z,-1.10
2022-12-13T08:31:11.534Z,-1.10
2022-12-13T08:32:32.462Z,-1.00
2022-12-13T08:33:52.910Z,-1.00
2022-12-13T08:35:13.774Z,-1.00
2022-12-13T08:36:34.466Z,-0.90
2022-12-13T08:37:55.011Z,-0.90
2022-12-13T08:39:15.413Z,-0.80
2022-12-13T08:40:36.122Z,-0.80
2022-12-13T08:41:56.891Z,-0.70
2022-12-13T08:43:17.621Z,-0.80
2022-12-13T08:44:48.410Z,-0.80
2022-12-13T08:46:09.275Z,-0.90
2022-12-13T08:47:30.534Z,-0.90
2022-12-13T08:48:53.191Z,-0.90
2022-12-13T08:50:14.031Z,-1.00
2022-12-13T08:51:35.732Z,-1.00
2022-12-13T08:52:56.591Z,-1.00
2022-12-13T08:54:31.482Z,-1.00
2022-12-13T08:55:52.847Z,-1.00
2022-12-13T08:57:13.467Z,-1.00
2022-12-13T08:58:34.157Z,-0.90
2022-12-13T08:59:56.204Z,-1.00
2022-12-13T09:01:17.373Z,-1.00
2022-12-13T09:02:38.792Z,-0.90
2022-12-13T09:03:59.372Z,-0.90
2022-12-13T09:05:32.311Z,-0.80
2022-12-13T09:06:55.409Z,-0.70
2022-12-13T09:08:23.966Z,-0.60
2022-12-13T09:09:45.697Z,-0.70
2022-12-13T09:11:11.196Z,-0.90
2022-12-13T09:12:43.211Z,-0.90
2022-12-13T09:14:03.732Z,-0.90
2022-12-13T09:15:25.685Z,-0.90
2022-12-13T09:16:55.095Z,-0.90
2022-12-13T09:18:24.474Z,-1.00
2022-12-13T09:19:45.973Z,-1.10
2022-12-13T09:21:10.835Z,-1.00
2022-12-13T09:22:34.257Z,-1.00
2022-12-13T09:23:55.459Z,-0.90
2022-12-13T09:25:24.355Z,-1.00
2022-12-13T09:26:44.913Z,-1.00
2022-12-13T09:28:06.546Z,-0.90
2022-12-13T09:29:27.121Z,-0.80
2022-12-13T09:30:49.291Z,-0.90
2022-12-13T09:32:09.593Z,-0.80
2022-12-13T09:33:31.305Z,-0.70
2022-12-13T09:34:51.815Z,-0.70
2022-12-13T09:36:14.419Z,-0.70
2022-12-13T09:37:35.240Z,-0.60
2022-12-13T09:38:55.737Z,-0.70
2022-12-13T09:40:25.484Z,-0.60
2022-12-13T09:41:49.087Z,-0.70
2022-12-13T09:43:22.890Z,-0.50
2022-12-13T09:45:02.164Z,-0.30
2022-12-13T09:46:34.806Z,-0.30
2022-12-13T09:48:13.444Z,-0.20
2022-12-13T09:49:36.211Z,-0.10
2022-12-13T09:51:18.452Z,0.00
2022-12-13T09:52:39.793Z,0.00
2022-12-13T09:54:00.845Z,0.00
2022-12-13T09:55:23.406Z,0.00
2022-12-13T09:56:43.708Z,0.00
2022-12-13T09:58:07.371Z,0.00
2022-12-13T09:59:30.110Z,0.10
2022-12-13T10:00:52.906Z,0.30
2022-12-13T10:02:17.850Z,0.50
2022-12-13T10:03:41.440Z,0.60
2022-12-13T10:05:22.190Z,0.60
2022-12-13T10:06:44.274Z,0.60
2022-12-13T10:08:07.116Z,0.50
2022-12-13T10:09:27.801Z,0.50
2022-12-13T10:10:50.008Z,0.40
2022-12-13T10:12:13.864Z,0.30
2022-12-13T10:13:38.868Z,0.30
2022-12-13T10:15:01.733Z,0.40
2022-12-13T10:16:27.711Z,0.50
2022-12-13T10:17:59.244Z,0.40
2022-12-13T10:19:29.369Z,0.30
2022-12-13T10:20:51.397Z,0.30
2022-12-13T10:22:14.920Z,0.50
2022-12-13T10:23:59.936Z,0.70
2022-12-13T10:25:16.011Z,0.70
2022-12-13T10:26:37.771Z,0.70
2022-12-13T10:27:58.269Z,0.70
2022-12-13T10:29:18.882Z,0.70
2022-12-13T10:30:40.728Z,0.70
2022-12-13T10:32:12.112Z,0.70
2022-12-13T10:33:35.704Z,0.70
2022-12-13T10:34:56.323Z,0.70
2022-12-13T10:36:31.258Z,0.70
2022-12-13T10:37:52.019Z,0.60
2022-12-13T10:39:16.714Z,0.60
2022-12-13T10:40:40.275Z,0.50
2022-12-13T10:42:03.297Z,0.60
2022-12-13T10:43:24.920Z,0.50
2022-12-13T10:44:45.897Z,0.60
2022-12-13T10:46:18.957Z,0.60
2022-12-13T10:47:46.223Z,0.60
2022-12-13T10:49:16.346Z,0.70
2022-12-13T10:50:36.882Z,0.60
2022-12-13T10:51:58.284Z,0.50
2022-12-13T10:53:18.630Z,0.60
2022-12-13T10:54:48.432Z,0.50
2022-12-13T10:56:09.416Z,0.60
2022-12-13T10:57:30.294Z,0.50
2022-12-13T10:58:53.787Z,0.70
2022-12-13T11:00:30.361Z,0.80
2022-12-13T11:01:50.798Z,0.90
2022-12-13T11:03:14.032Z,0.90
2022-12-13T11:04:35.740Z,0.80
2022-12-13T11:06:03.526Z,0.80
2022-12-13T11:07:27.490Z,0.80
2022-12-13T11:08:48.345Z,0.80
2022-12-13T11:10:26.638Z,0.80
2022-12-13T11:11:51.718Z,0.90
2022-12-13T11:13:24.765Z,0.90
2022-12-13T11:14:52.246Z,1.00
2022-12-13T11:16:21.630Z,1.00
2022-12-13T11:17:47.799Z,1.00
2022-12-13T11:19:18.128Z,1.00
2022-12-13T11:20:54.299Z,1.10
2022-12-13T11:22:21.010Z,1.20
2022-12-13T11:23:44.516Z,1.20
2022-12-13T11:25:08.738Z,1.20
2022-12-13T11:26:31.131Z,1.40
2022-12-13T11:28:03.402Z,1.40
2022-12-13T11:29:40.368Z,1.40
2022-12-13T11:31:11.442Z,1.40
2022-12-13T11:32:42.236Z,1.40
2022-12-13T11:34:12.058Z,1.40
2022-12-13T11:35:46.406Z,1.50
2022-12-13T11:37:15.215Z,1.70
2022-12-13T11:38:48.772Z,1.90
2022-12-13T11:40:13.702Z,2.10
2022-12-13T11:41:37.191Z,2.10
2022-12-13T11:43:00.233Z,2.20
2022-12-13T11:44:25.991Z,2.30
2022-12-13T11:45:51.702Z,2.10
2022-12-13T11:47:16.823Z,2.00
2022-12-13T11:48:43.402Z,2.20
2022-12-13T11:50:15.342Z,2.20
2022-12-13T11:51:43.306Z,2.20
2022-12-13T11:53:20.864Z,2.20
2022-12-13T11:54:48.723Z,2.20
2022-12-13T11:56:14.515Z,2.10
2022-12-13T11:57:41.995Z,2.10
2022-12-13T11:59:16.215Z,2.00
2022-12-13T12:00:45.372Z,2.10
2022-12-13T12:02:16.678Z,2.20
2022-12-13T12:03:41.840Z,2.20
2022-12-13T12:05:06.483Z,2.40
2022-12-13T12:06:30.371Z,2.40
2022-12-13T12:08:31.292Z,2.40
2022-12-13T12:09:36.777Z,2.30
2022-12-13T12:11:03.608Z,2.20
2022-12-13T12:12:27.548Z,2.20
2022-12-13T12:13:52.075Z,2.30
2022-12-13T12:15:17.692Z,2.50
2022-12-13T12:16:52.207Z,2.50
2022-12-13T12:18:14.128Z,2.40
2022-12-13T12:19:37.214Z,2.40
2022-12-13T12:21:06.302Z,2.40
2022-12-13T12:22:34.991Z,2.40
2022-12-13T12:24:10.880Z,2.50
2022-12-13T12:25:38.563Z,2.70
2022-12-13T12:27:22.269Z,2.80
2022-12-13T12:29:01.436Z,2.60
2022-12-13T12:30:24.315Z,2.40
2022-12-13T12:31:54.462Z,2.40
2022-12-13T12:33:23.074Z,2.50
2022-12-13T12:34:49.310Z,2.40
2022-12-13T12:36:32.023Z,2.40
2022-12-13T12:37:54.185Z,2.50
2022-12-13T12:39:34.739Z,2.50
2022-12-13T12:41:28.480Z,2.50
2022-12-13T12:43:13.999Z,2.30
2022-12-13T12:44:42.358Z,2.30
2022-12-13T12:46:15.972Z,2.40
2022-12-13T12:48:46.358Z,2.50
2022-12-13T12:49:49.506Z,2.20
2022-12-13T12:51:14.228Z,2.20
2022-12-13T12:52:43.076Z,2.20
2022-12-13T12:54:17.070Z,2.10
2022-12-13T12:55:48.189Z,2.10
2022-12-13T12:57:15.548Z,2.00
2022-12-13T12:58:42.330Z,2.00
2022-12-13T13:00:05.824Z,2.20
2022-12-13T13:01:43.897Z,2.00
2022-12-13T13:03:17.355Z,1.90
2022-12-13T13:04:48.047Z,1.80
2022-12-13T13:06:12.569Z,1.70
2022-12-13T13:07:39.835Z,1.70
2022-12-13T13:09:02.888Z,1.70
2022-12-13T13:10:26.180Z,1.80
2022-12-13T13:11:49.267Z,1.90
2022-12-13T13:13:35.427Z,1.90
2022-12-13T13:14:56.256Z,1.90
2022-12-13T13:16:30.477Z,1.90
2022-12-13T13:17:50.922Z,1.90
2022-12-13T13:19:41.070Z,1.90
2022-12-13T13:21:32.499Z,1.90
2022-12-13T13:23:17.668Z,2.00
2022-12-13T13:24:35.219Z,2.00
2022-12-13T13:27:40.613Z,2.00
2022-12-13T13:29:28.772Z,1.90
2022-12-13T13:31:02.549Z,1.80
2022-12-13T13:32:32.356Z,1.70
2022-12-13T13:33:53.117Z,1.70
2022-12-13T13:35:45.961Z,1.70
2022-12-13T13:37:27.571Z,1.80
2022-12-13T13:38:50.234Z,1.60
2022-12-13T13:40:30.390Z,1.50
2022-12-13T13:41:57.000Z,1.40
2022-12-13T13:43:32.175Z,1.50
2022-12-13T13:45:10.675Z,1.50
2022-12-13T13:46:31.092Z,1.60
2022-12-13T13:48:24.589Z,1.70
2022-12-13T13:49:59.933Z,1.60
2022-12-13T13:52:16.588Z,1.60
2022-12-13T13:54:14.857Z,1.40
2022-12-13T13:55:47.859Z,1.40
2022-12-13T13:58:08.926Z,1.30
2022-12-13T14:00:06.506Z,1.30
2022-12-13T14:02:01.583Z,1.40
2022-12-13T14:04:06.859Z,1.30
2022-12-13T14:06:07.010Z,1.40
2022-12-13T14:07:58.724Z,1.50
2022-12-13T14:09:50.253Z,1.50
2022-12-13T14:11:24.821Z,1.40
2022-12-13T14:13:40.020Z,1.50
2022-12-13T14:15:42.384Z,1.50
2022-12-13T14:17:48.510Z,1.40
2022-12-13T14:19:42.590Z,1.50
2022-12-13T14:21:24.329Z,1.60
2022-12-13T14:22:45.433Z,1.50
2022-12-13T14:24:16.716Z,1.50
2022-12-13T14:25:52.323Z,1.50
2022-12-13T14:27:19.974Z,1.50
2022-12-13T14:28:47.421Z,1.30
2022-12-13T14:30:28.570Z,1.40
2022-12-13T14:31:50.020Z,1.30
2022-12-13T14:33:17.496Z,1.40
2022-12-13T14:34:39.845Z,1.40
2022-12-13T14:36:01.618Z,1.40
2022-12-13T14:37:25.992Z,1.30
2022-12-13T14:38:46.285Z,1.40
2022-12-13T14:40:26.116Z,1.40
2022-12-13T14:41:47.589Z,1.40
2022-12-13T14:43:24.005Z,1.30
2022-12-13T14:44:44.870Z,1.40
2022-12-13T14:46:06.992Z,1.30
2022-12-13T14:47:27.537Z,1.30
2022-12-13T14:48:49.960Z,1.30
2022-12-13T14:50:16.252Z,1.30
2022-12-13T14:51:38.356Z,1.30
2022-12-13T14:52:59.055Z,1.30
2022-12-13T14:54:25.922Z,1.20
2022-12-13T14:56:03.576Z,1.30
2022-12-13T14:57:25.866Z,1.30
2022-12-13T14:58:52.973Z,1.20
2022-12-13T15:00:25.242Z,1.20
2022-12-13T15:01:54.712Z,1.10
2022-12-13T15:03:22.595Z,1.10
2022-12-13T15:04:44.410Z,1.00
2022-12-13T15:06:06.264Z,1.10
2022-12-13T15:07:28.865Z,1.20
2022-12-13T15:08:49.639Z,1.10
2022-12-13T15:10:21.738Z,1.20
2022-12-13T15:11:42.141Z,1.20
2022-12-13T15:13:03.025Z,1.10
2022-12-13T15:14:24.402Z,1.00
2022-12-13T15:15:45.059Z,0.90
2022-12-13T15:17:05.654Z,1.00
2022-12-13T15:18:27.246Z,1.00
2022-12-13T15:19:48.536Z,1.00
2022-12-13T15:21:21.621Z,1.00
2022-12-13T15:22:42.409Z,1.00
2022-12-13T15:24:03.423Z,0.90
2022-12-13T15:25:23.925Z,1.10
2022-12-13T15:26:45.404Z,1.20
2022-12-13T15:28:06.923Z,1.20
2022-12-13T15:29:30.413Z,1.00
2022-12-13T15:30:51.306Z,1.10
2022-12-13T15:32:13.732Z,0.90
2022-12-13T15:33:39.327Z,0.90
2022-12-13T15:35:15.511Z,1.00
2022-12-13T15:36:37.809Z,1.00
2022-12-13T15:37:58.600Z,0.80
2022-12-13T15:39:19.189Z,0.90
2022-12-13T15:40:43.789Z,0.90
2022-12-13T15:42:04.585Z,0.90
2022-12-13T15:43:31.114Z,0.80
2022-12-13T15:44:54.054Z,0.70
2022-12-13T15:46:14.835Z,0.70
2022-12-13T15:47:35.417Z,0.60
2022-12-13T15:48:56.906Z,0.80
2022-12-13T15:50:29.225Z,0.80
2022-12-13T15:51:58.989Z,0.90
2022-12-13T15:53:23.205Z,0.90
2022-12-13T15:54:55.511Z,0.80
2022-12-13T15:56:28.946Z,0.70
2022-12-13T15:57:50.894Z,0.60
2022-12-13T15:59:25.531Z,0.60
2022-12-13T16:00:48.736Z,0.50
2022-12-13T16:02:15.577Z,0.50
2022-12-13T16:03:40.943Z,0.50
2022-12-13T16:05:08.978Z,0.50
2022-12-13T16:06:31.578Z,0.50
2022-12-13T16:07:56.728Z,0.70
2022-12-13T16:09:19.914Z,0.70
2022-12-13T16:10:46.479Z,0.60
2022-12-13T16:12:07.513Z,0.50
2022-12-13T16:13:29.013Z,0.50
2022-12-13T16:14:50.160Z,0.50
2022-12-13T16:16:27.037Z,0.50
2022-12-13T16:17:50.464Z,0.50
2022-12-13T16:19:17.917Z,0.50
2022-12-13T16:20:38.842Z,0.60
2022-12-13T16:21:59.219Z,0.80
2022-12-13T16:23:26.936Z,0.70
2022-12-13T16:24:48.628Z,0.60
2022-12-13T16:26:10.946Z,0.60
2022-12-13T16:27:32.012Z,0.50
2022-12-13T16:28:52.774Z,0.60
2022-12-13T16:30:15.840Z,0.70
2022-12-13T16:31:36.638Z,0.70
2022-12-13T16:33:18.068Z,0.70
2022-12-13T16:34:38.006Z,0.70
2022-12-13T16:35:58.566Z,0.70
2022-12-13T16:37:25.561Z,0.60
2022-12-13T16:38:47.788Z,0.70
2022-12-13T16:40:23.634Z,0.60
2022-12-13T16:41:46.047Z,0.50
2022-12-13T16:43:07.551Z,0.50
2022-12-13T16:44:31.860Z,0.50
2022-12-13T16:45:53.692Z,0.40
2022-12-13T16:47:22.336Z,0.30
2022-12-13T16:48:47.543Z,0.40
2022-12-13T16:50:13.887Z,0.40
2022-12-13T16:51:34.636Z,0.40
2022-12-13T16:52:55.372Z,0.50
2022-12-13T16:54:18.248Z,0.50
2022-12-13T16:55:38.704Z,0.50
2022-12-13T16:56:59.379Z,0.50
2022-12-13T16:58:20.202Z,0.70
2022-12-13T16:59:40.575Z,0.70
2022-12-13T17:01:01.083Z,0.70
2022-12-13T17:02:21.598Z,0.60
2022-12-13T17:03:41.846Z,0.50
2022-12-13T17:05:03.060Z,0.70
2022-12-13T17:06:24.306Z,0.70
2022-12-13T17:07:45.746Z,0.50
2022-12-13T17:09:06.565Z,0.50
2022-12-13T17:10:28.628Z,0.50
2022-12-13T17:11:49.516Z,0.50
2022-12-13T17:13:10.374Z,0.50
2022-12-13T17:14:30.839Z,0.70
2022-12-13T17:15:59.006Z,0.80
2022-12-13T17:17:20.227Z,0.70
2022-12-13T17:18:43.326Z,0.60
2022-12-13T17:20:05.081Z,0.60
2022-12-13T17:21:26.417Z,0.50
2022-12-13T17:22:47.452Z,0.60
2022-12-13T17:24:08.220Z,0.50
2022-12-13T17:25:30.211Z,0.40
2022-12-13T17:26:54.477Z,0.40
2022-12-13T17:28:15.731Z,0.40
2022-12-13T17:29:36.262Z,0.40
2022-12-13T17:31:04.748Z,0.40
2022-12-13T17:32:25.316Z,0.50
2022-12-13T17:33:46.160Z,0.60
2022-12-13T17:35:07.352Z,0.50
2022-12-13T17:36:27.766Z,0.50
2022-12-13T17:37:48.191Z,0.40
2022-12-13T17:39:08.693Z,0.40
2022-12-13T17:40:30.818Z,0.40
2022-12-13T17:41:55.369Z,0.40
2022-12-13T17:43:26.241Z,0.40
2022-12-13T17:44:54.035Z,0.30
2022-12-13T17:46:16.526Z,0.30
2022-12-13T17:47:37.107Z,0.20
2022-12-13T17:48:57.434Z,0.30
2022-12-13T17:50:18.258Z,0.30
2022-12-13T17:51:38.967Z,0.40
2022-12-13T17:52:59.718Z,0.50
2022-12-13T17:54:20.755Z,0.50
2022-12-13T17:55:42.688Z,0.40
2022-12-13T17:57:03.241Z,0.40
2022-12-13T17:58:25.174Z,0.50
2022-12-13T17:59:46.119Z,0.50
2022-12-13T18:01:11.563Z,0.60
2022-12-13T18:02:32.258Z,0.50
2022-12-13T18:03:54.409Z,0.40
2022-12-13T18:05:18.046Z,0.30
2022-12-13T18:06:38.979Z,0.30
2022-12-13T18:07:59.233Z,0.30
2022-12-13T18:09:19.645Z,0.30
2022-12-13T18:10:41.681Z,0.30
2022-12-13T18:12:02.179Z,0.20
2022-12-13T18:13:23.688Z,0.30
2022-12-13T18:14:44.321Z,0.30
2022-12-13T18:16:05.507Z,0.20
2022-12-13T18:17:46.589Z,0.40
2022-12-13T18:19:07.223Z,0.40
2022-12-13T18:20:27.565Z,0.40
2022-12-13T18:21:47.831Z,0.20
2022-12-13T18:23:08.084Z,0.20
2022-12-13T18:24:28.620Z,0.30
2022-12-13T18:25:50.736Z,0.20
2022-12-13T18:27:11.423Z,0.20
2022-12-13T18:28:31.716Z,0.20
2022-12-13T18:29:55.298Z,0.20
2022-12-13T18:31:18.299Z,0.40
2022-12-13T18:32:40.166Z,0.40
2022-12-13T18:34:00.475Z,0.30
2022-12-13T18:35:21.213Z,0.40
2022-12-13T18:36:42.133Z,0.30
2022-12-13T18:38:02.702Z,0.20